sensor_id;sensor_type;location;lat;lon;timestamp;pressure;altitude;pressure_sealevel;temperature;humidity
12178;BME280;6152;48.728;9.256;2023-06-19T00:00:37;96681.88;;;23.27;64.30
12178;BME280;6152;48.728;9.256;2023-06-19T00:03:04;96675.28;;;23.23;64.75
12178;BME280;6152;48.728;9.256;2023-06-19T00:05:31;96687.06;;;23.21;65.16
12178;BME280;6152;48.728;9.256;2023-06-19T00:07:57;96673.53;;;23.15;66.07
12178;BME280;6152;48.728;9.256;2023-06-19T00:10:23;96680.03;;;23.13;66.74
12178;BME280;6152;48.728;9.256;2023-06-19T00:12:50;96681.19;;;23.10;67.25
12178;BME280;6152;48.728;9.256;2023-06-19T00:15:17;96680.94;;;23.05;68.11
12178;BME280;6152;48.728;9.256;2023-06-19T00:17:43;96678.63;;;23.02;68.28
12178;BME280;6152;48.728;9.256;2023-06-19T00:20:10;96682.00;;;22.96;68.65
12178;BME280;6152;48.728;9.256;2023-06-19T00:22:36;96689.50;;;22.93;69.51
12178;BME280;6152;48.728;9.256;2023-06-19T00:25:02;96687.03;;;22.91;69.41
12178;BME280;6152;48.728;9.256;2023-06-19T00:27:29;96683.38;;;22.92;69.65
12178;BME280;6152;48.728;9.256;2023-06-19T00:29:55;96677.59;;;22.89;69.87
12178;BME280;6152;48.728;9.256;2023-06-19T00:32:28;96676.78;;;22.88;69.80
12178;BME280;6152;48.728;9.256;2023-06-19T00:34:54;96689.38;;;22.86;69.98
12178;BME280;6152;48.728;9.256;2023-06-19T00:37:20;96685.56;;;22.89;69.56
12178;BME280;6152;48.728;9.256;2023-06-19T00:39:46;96685.22;;;22.92;69.86
12178;BME280;6152;48.728;9.256;2023-06-19T00:42:12;96687.03;;;22.91;69.28
12178;BME280;6152;48.728;9.256;2023-06-19T00:44:39;96694.47;;;22.96;68.86
12178;BME280;6152;48.728;9.256;2023-06-19T00:47:06;96694.09;;;22.99;69.48
12178;BME280;6152;48.728;9.256;2023-06-19T00:49:32;96701.69;;;23.02;69.23
12178;BME280;6152;48.728;9.256;2023-06-19T00:51:59;96693.75;;;23.02;68.92
12178;BME280;6152;48.728;9.256;2023-06-19T00:54:25;96699.97;;;23.09;69.27
12178;BME280;6152;48.728;9.256;2023-06-19T00:56:51;96702.25;;;23.12;68.57
12178;BME280;6152;48.728;9.256;2023-06-19T00:59:20;96707.38;;;23.13;68.75
12178;BME280;6152;48.728;9.256;2023-06-19T01:01:47;96713.16;;;23.17;68.33
12178;BME280;6152;48.728;9.256;2023-06-19T01:04:13;96711.53;;;23.16;68.47
12178;BME280;6152;48.728;9.256;2023-06-19T01:07:04;96693.78;;;23.17;68.17
12178;BME280;6152;48.728;9.256;2023-06-19T01:09:51;96698.88;;;23.18;68.72
12178;BME280;6152;48.728;9.256;2023-06-19T01:12:23;96714.81;;;23.18;68.59
12178;BME280;6152;48.728;9.256;2023-06-19T01:14:58;96700.53;;;23.19;68.68
12178;BME280;6152;48.728;9.256;2023-06-19T01:17:26;96714.44;;;23.21;68.43
12178;BME280;6152;48.728;9.256;2023-06-19T01:19:53;96720.13;;;23.18;68.65
12178;BME280;6152;48.728;9.256;2023-06-19T01:22:30;96719.28;;;23.17;68.62
12178;BME280;6152;48.728;9.256;2023-06-19T01:24:56;96741.38;;;23.18;68.97
12178;BME280;6152;48.728;9.256;2023-06-19T01:27:24;96764.53;;;23.24;68.73
12178;BME280;6152;48.728;9.256;2023-06-19T01:30:01;96751.25;;;23.24;69.06
12178;BME280;6152;48.728;9.256;2023-06-19T01:32:44;96761.31;;;23.14;68.08
12178;BME280;6152;48.728;9.256;2023-06-19T01:35:15;96771.81;;;23.07;68.22
12178;BME280;6152;48.728;9.256;2023-06-19T01:37:43;96771.34;;;23.04;67.57
12178;BME280;6152;48.728;9.256;2023-06-19T01:40:11;96763.47;;;22.96;67.18
12178;BME280;6152;48.728;9.256;2023-06-19T01:42:39;96766.47;;;22.93;67.18
12178;BME280;6152;48.728;9.256;2023-06-19T01:45:06;96772.31;;;22.88;67.43
12178;BME280;6152;48.728;9.256;2023-06-19T01:47:33;96784.13;;;22.86;68.30
12178;BME280;6152;48.728;9.256;2023-06-19T01:49:59;96773.50;;;22.86;68.57
12178;BME280;6152;48.728;9.256;2023-06-19T01:52:25;96777.88;;;22.79;69.53
12178;BME280;6152;48.728;9.256;2023-06-19T01:54:52;96776.56;;;22.75;70.30
12178;BME280;6152;48.728;9.256;2023-06-19T01:57:18;96773.97;;;22.67;70.76
12178;BME280;6152;48.728;9.256;2023-06-19T01:59:44;96769.34;;;22.60;70.79
12178;BME280;6152;48.728;9.256;2023-06-19T02:02:10;96777.81;;;22.56;71.56
12178;BME280;6152;48.728;9.256;2023-06-19T02:04:36;96782.50;;;22.46;72.48
12178;BME280;6152;48.728;9.256;2023-06-19T02:07:03;96769.78;;;22.41;73.26
12178;BME280;6152;48.728;9.256;2023-06-19T02:09:29;96769.47;;;22.36;73.79
12178;BME280;6152;48.728;9.256;2023-06-19T02:11:55;96774.19;;;22.26;75.07
12178;BME280;6152;48.728;9.256;2023-06-19T02:14:21;96771.88;;;22.23;76.06
12178;BME280;6152;48.728;9.256;2023-06-19T02:16:47;96761.94;;;22.17;78.28
12178;BME280;6152;48.728;9.256;2023-06-19T02:19:13;96770.78;;;22.09;79.13
12178;BME280;6152;48.728;9.256;2023-06-19T02:21:39;96760.53;;;22.06;79.70
12178;BME280;6152;48.728;9.256;2023-06-19T02:24:05;96763.34;;;22.05;81.92
12178;BME280;6152;48.728;9.256;2023-06-19T02:26:32;96772.97;;;21.98;83.87
12178;BME280;6152;48.728;9.256;2023-06-19T02:28:58;96769.19;;;21.92;84.84
12178;BME280;6152;48.728;9.256;2023-06-19T02:31:24;96777.63;;;21.88;86.28
12178;BME280;6152;48.728;9.256;2023-06-19T02:33:51;96779.94;;;21.83;87.38
12178;BME280;6152;48.728;9.256;2023-06-19T02:36:17;96774.50;;;21.76;89.14
12178;BME280;6152;48.728;9.256;2023-06-19T02:38:49;96774.69;;;21.75;89.92
12178;BME280;6152;48.728;9.256;2023-06-19T02:41:15;96777.69;;;21.72;90.63
12178;BME280;6152;48.728;9.256;2023-06-19T02:43:44;96778.00;;;21.68;91.44
12178;BME280;6152;48.728;9.256;2023-06-19T02:46:10;96786.13;;;21.67;92.41
12178;BME280;6152;48.728;9.256;2023-06-19T02:48:36;96785.78;;;21.62;92.83
12178;BME280;6152;48.728;9.256;2023-06-19T02:51:02;96791.28;;;21.60;93.17
12178;BME280;6152;48.728;9.256;2023-06-19T02:53:28;96799.38;;;21.59;93.10
12178;BME280;6152;48.728;9.256;2023-06-19T02:55:55;96808.66;;;21.55;92.70
12178;BME280;6152;48.728;9.256;2023-06-19T02:58:21;96805.69;;;21.50;93.06
12178;BME280;6152;48.728;9.256;2023-06-19T03:00:47;96812.16;;;21.47;94.58
12178;BME280;6152;48.728;9.256;2023-06-19T03:03:14;96806.38;;;21.44;96.35
12178;BME280;6152;48.728;9.256;2023-06-19T03:05:40;96813.50;;;21.35;98.85
12178;BME280;6152;48.728;9.256;2023-06-19T03:08:06;96813.50;;;21.27;100.00
12178;BME280;6152;48.728;9.256;2023-06-19T03:10:33;96811.16;;;21.08;100.00
12178;BME280;6152;48.728;9.256;2023-06-19T03:12:59;96808.66;;;20.90;100.00
12178;BME280;6152;48.728;9.256;2023-06-19T03:15:25;96817.41;;;20.83;100.00
12178;BME280;6152;48.728;9.256;2023-06-19T03:17:53;96825.34;;;20.83;100.00
12178;BME280;6152;48.728;9.256;2023-06-19T03:20:19;96823.22;;;20.78;100.00
12178;BME280;6152;48.728;9.256;2023-06-19T03:22:46;96821.53;;;20.69;100.00
12178;BME280;6152;48.728;9.256;2023-06-19T03:25:13;96823.50;;;20.67;100.00
12178;BME280;6152;48.728;9.256;2023-06-19T03:27:39;96829.94;;;20.56;100.00
12178;BME280;6152;48.728;9.256;2023-06-19T03:30:07;96823.63;;;20.49;100.00
12178;BME280;6152;48.728;9.256;2023-06-19T03:32:34;96826.25;;;20.41;100.00
12178;BME280;6152;48.728;9.256;2023-06-19T03:35:03;96827.59;;;20.37;100.00
12178;BME280;6152;48.728;9.256;2023-06-19T03:37:31;96817.81;;;20.38;100.00
12178;BME280;6152;48.728;9.256;2023-06-19T03:39:58;96826.41;;;20.40;100.00
12178;BME280;6152;48.728;9.256;2023-06-19T03:42:24;96825.25;;;20.42;100.00
12178;BME280;6152;48.728;9.256;2023-06-19T03:44:50;96825.94;;;20.44;100.00
12178;BME280;6152;48.728;9.256;2023-06-19T03:47:16;96826.94;;;20.43;100.00
12178;BME280;6152;48.728;9.256;2023-06-19T03:49:42;96827.91;;;20.42;100.00
12178;BME280;6152;48.728;9.256;2023-06-19T03:52:09;96832.69;;;20.39;100.00
12178;BME280;6152;48.728;9.256;2023-06-19T03:54:35;96824.44;;;20.42;100.00
12178;BME280;6152;48.728;9.256;2023-06-19T03:57:01;96823.31;;;20.44;100.00
12178;BME280;6152;48.728;9.256;2023-06-19T03:59:27;96835.88;;;20.50;100.00
12178;BME280;6152;48.728;9.256;2023-06-19T04:01:53;96842.31;;;20.56;100.00
12178;BME280;6152;48.728;9.256;2023-06-19T04:04:19;96840.66;;;20.55;100.00
12178;BME280;6152;48.728;9.256;2023-06-19T04:06:46;96838.84;;;20.55;100.00
12178;BME280;6152;48.728;9.256;2023-06-19T04:09:12;96846.63;;;20.57;100.00
12178;BME280;6152;48.728;9.256;2023-06-19T04:11:39;96861.69;;;20.64;100.00
12178;BME280;6152;48.728;9.256;2023-06-19T04:14:05;96856.41;;;20.64;100.00
12178;BME280;6152;48.728;9.256;2023-06-19T04:16:31;96860.88;;;20.64;100.00
12178;BME280;6152;48.728;9.256;2023-06-19T04:18:57;96857.75;;;20.69;100.00
12178;BME280;6152;48.728;9.256;2023-06-19T04:21:23;96853.63;;;20.74;100.00
12178;BME280;6152;48.728;9.256;2023-06-19T04:23:49;96856.09;;;20.76;100.00
12178;BME280;6152;48.728;9.256;2023-06-19T04:26:15;96856.09;;;20.76;100.00
12178;BME280;6152;48.728;9.256;2023-06-19T04:28:41;96860.06;;;20.80;100.00
12178;BME280;6152;48.728;9.256;2023-06-19T04:31:07;96858.75;;;20.84;100.00
12178;BME280;6152;48.728;9.256;2023-06-19T04:33:34;96865.53;;;20.86;100.00
12178;BME280;6152;48.728;9.256;2023-06-19T04:36:00;96864.88;;;20.84;100.00
12178;BME280;6152;48.728;9.256;2023-06-19T04:38:26;96859.44;;;20.86;100.00
12178;BME280;6152;48.728;9.256;2023-06-19T04:40:53;96858.94;;;20.82;100.00
12178;BME280;6152;48.728;9.256;2023-06-19T04:43:19;96849.81;;;20.69;100.00
12178;BME280;6152;48.728;9.256;2023-06-19T04:45:45;96845.16;;;20.62;100.00
12178;BME280;6152;48.728;9.256;2023-06-19T04:48:11;96851.13;;;20.64;100.00
12178;BME280;6152;48.728;9.256;2023-06-19T04:50:38;96853.09;;;20.62;100.00
12178;BME280;6152;48.728;9.256;2023-06-19T04:53:04;96847.97;;;20.69;100.00
12178;BME280;6152;48.728;9.256;2023-06-19T04:55:30;96848.16;;;20.84;100.00
12178;BME280;6152;48.728;9.256;2023-06-19T04:57:56;96857.97;;;20.99;100.00
12178;BME280;6152;48.728;9.256;2023-06-19T05:00:22;96868.88;;;21.04;100.00
12178;BME280;6152;48.728;9.256;2023-06-19T05:02:50;96869.72;;;21.05;100.00
12178;BME280;6152;48.728;9.256;2023-06-19T05:05:16;96872.06;;;21.16;100.00
12178;BME280;6152;48.728;9.256;2023-06-19T05:07:43;96873.22;;;21.13;100.00
12178;BME280;6152;48.728;9.256;2023-06-19T05:10:11;96877.69;;;21.13;100.00
12178;BME280;6152;48.728;9.256;2023-06-19T05:12:37;96879.50;;;21.12;100.00
12178;BME280;6152;48.728;9.256;2023-06-19T05:15:03;96879.13;;;21.07;100.00
12178;BME280;6152;48.728;9.256;2023-06-19T05:17:29;96881.97;;;21.06;100.00
12178;BME280;6152;48.728;9.256;2023-06-19T05:19:55;96876.88;;;21.12;100.00
12178;BME280;6152;48.728;9.256;2023-06-19T05:22:21;96883.00;;;21.13;100.00
12178;BME280;6152;48.728;9.256;2023-06-19T05:24:49;96880.34;;;21.13;100.00
12178;BME280;6152;48.728;9.256;2023-06-19T05:27:15;96871.56;;;21.12;100.00
12178;BME280;6152;48.728;9.256;2023-06-19T05:29:42;96878.28;;;21.07;100.00
12178;BME280;6152;48.728;9.256;2023-06-19T05:32:08;96878.50;;;21.13;100.00
12178;BME280;6152;48.728;9.256;2023-06-19T05:34:34;96876.03;;;21.12;100.00
12178;BME280;6152;48.728;9.256;2023-06-19T05:37:00;96881.00;;;21.15;100.00
12178;BME280;6152;48.728;9.256;2023-06-19T05:39:29;96880.00;;;21.16;100.00
12178;BME280;6152;48.728;9.256;2023-06-19T05:41:55;96875.03;;;21.21;100.00
12178;BME280;6152;48.728;9.256;2023-06-19T05:44:21;96874.06;;;21.22;100.00
12178;BME280;6152;48.728;9.256;2023-06-19T05:46:47;96880.00;;;21.24;100.00
12178;BME280;6152;48.728;9.256;2023-06-19T05:49:13;96890.28;;;21.27;100.00
12178;BME280;6152;48.728;9.256;2023-06-19T05:51:39;96898.53;;;21.24;100.00
12178;BME280;6152;48.728;9.256;2023-06-19T05:54:06;96899.03;;;21.20;100.00
12178;BME280;6152;48.728;9.256;2023-06-19T05:56:32;96902.53;;;21.36;100.00
12178;BME280;6152;48.728;9.256;2023-06-19T05:58:59;96898.53;;;21.48;100.00
12178;BME280;6152;48.728;9.256;2023-06-19T06:01:26;96898.53;;;21.48;100.00
12178;BME280;6152;48.728;9.256;2023-06-19T06:03:54;96896.22;;;21.70;100.00
12178;BME280;6152;48.728;9.256;2023-06-19T06:06:21;96904.31;;;21.84;100.00
12178;BME280;6152;48.728;9.256;2023-06-19T06:08:47;96903.53;;;21.92;100.00
12178;BME280;6152;48.728;9.256;2023-06-19T06:11:13;96916.09;;;21.98;100.00
12178;BME280;6152;48.728;9.256;2023-06-19T06:13:39;96909.81;;;21.91;100.00
12178;BME280;6152;48.728;9.256;2023-06-19T06:16:05;96917.56;;;22.08;100.00
12178;BME280;6152;48.728;9.256;2023-06-19T06:18:31;96914.75;;;22.02;100.00
12178;BME280;6152;48.728;9.256;2023-06-19T06:20:57;96925.03;;;21.97;100.00
12178;BME280;6152;48.728;9.256;2023-06-19T06:23:25;96927.34;;;22.08;100.00
12178;BME280;6152;48.728;9.256;2023-06-19T06:25:51;96920.03;;;22.18;100.00
12178;BME280;6152;48.728;9.256;2023-06-19T06:28:17;96917.97;;;22.44;100.00
12178;BME280;6152;48.728;9.256;2023-06-19T06:30:43;96922.19;;;22.70;100.00
12178;BME280;6152;48.728;9.256;2023-06-19T06:33:10;96925.78;;;22.85;100.00
12178;BME280;6152;48.728;9.256;2023-06-19T06:35:36;96937.25;;;23.08;100.00
12178;BME280;6152;48.728;9.256;2023-06-19T06:38:02;96941.38;;;23.10;100.00
12178;BME280;6152;48.728;9.256;2023-06-19T06:40:28;96935.53;;;23.23;100.00
12178;BME280;6152;48.728;9.256;2023-06-19T06:42:55;96944.34;;;23.15;100.00
12178;BME280;6152;48.728;9.256;2023-06-19T06:45:21;96939.81;;;23.24;100.00
12178;BME280;6152;48.728;9.256;2023-06-19T06:47:47;96936.34;;;23.69;100.00
12178;BME280;6152;48.728;9.256;2023-06-19T06:50:13;96943.06;;;24.02;99.82
12178;BME280;6152;48.728;9.256;2023-06-19T06:52:40;96957.41;;;24.16;99.66
12178;BME280;6152;48.728;9.256;2023-06-19T06:55:06;96948.34;;;24.25;97.22
12178;BME280;6152;48.728;9.256;2023-06-19T06:57:32;96943.88;;;24.40;93.43
12178;BME280;6152;48.728;9.256;2023-06-19T06:59:58;96952.47;;;24.42;94.19
12178;BME280;6152;48.728;9.256;2023-06-19T07:02:24;96946.16;;;24.58;92.48
12178;BME280;6152;48.728;9.256;2023-06-19T07:04:50;96951.84;;;24.40;93.56
12178;BME280;6152;48.728;9.256;2023-06-19T07:07:18;96952.91;;;24.31;91.34
12178;BME280;6152;48.728;9.256;2023-06-19T07:09:44;96953.75;;;24.32;92.66
12178;BME280;6152;48.728;9.256;2023-06-19T07:12:10;96959.91;;;24.32;90.35
12178;BME280;6152;48.728;9.256;2023-06-19T07:14:36;96959.91;;;24.32;87.99
12178;BME280;6152;48.728;9.256;2023-06-19T07:17:02;96955.31;;;24.26;87.30
12178;BME280;6152;48.728;9.256;2023-06-19T07:19:28;96958.00;;;24.41;89.18
12178;BME280;6152;48.728;9.256;2023-06-19T07:21:55;96950.34;;;24.38;84.65
12178;BME280;6152;48.728;9.256;2023-06-19T07:24:21;96955.88;;;24.95;83.81
12178;BME280;6152;48.728;9.256;2023-06-19T07:26:49;96950.81;;;25.36;80.31
12178;BME280;6152;48.728;9.256;2023-06-19T07:29:15;96954.09;;;25.38;78.77
12178;BME280;6152;48.728;9.256;2023-06-19T07:31:41;96956.47;;;25.47;76.53
12178;BME280;6152;48.728;9.256;2023-06-19T07:34:11;96967.22;;;25.18;73.18
12178;BME280;6152;48.728;9.256;2023-06-19T07:36:37;96968.59;;;25.14;75.52
12178;BME280;6152;48.728;9.256;2023-06-19T07:39:03;96958.66;;;25.58;73.67
12178;BME280;6152;48.728;9.256;2023-06-19T07:41:29;96950.06;;;26.05;70.68
12178;BME280;6152;48.728;9.256;2023-06-19T07:43:55;96957.06;;;26.34;66.88
12178;BME280;6152;48.728;9.256;2023-06-19T07:46:21;96970.56;;;26.88;63.74
12178;BME280;6152;48.728;9.256;2023-06-19T07:48:47;96971.91;;;27.12;62.07
12178;BME280;6152;48.728;9.256;2023-06-19T07:51:13;96964.84;;;27.58;60.92
12178;BME280;6152;48.728;9.256;2023-06-19T07:53:39;96975.41;;;27.93;60.55
12178;BME280;6152;48.728;9.256;2023-06-19T07:56:06;96975.22;;;28.01;58.31
12178;BME280;6152;48.728;9.256;2023-06-19T07:58:32;96977.03;;;27.81;57.32
12178;BME280;6152;48.728;9.256;2023-06-19T08:00:58;96972.31;;;27.83;57.37
12178;BME280;6152;48.728;9.256;2023-06-19T08:03:24;96978.47;;;27.90;57.72
12178;BME280;6152;48.728;9.256;2023-06-19T08:05:50;96965.69;;;27.59;58.07
12178;BME280;6152;48.728;9.256;2023-06-19T08:08:16;96973.75;;;27.18;60.16
12178;BME280;6152;48.728;9.256;2023-06-19T08:10:42;96977.84;;;27.07;60.61
12178;BME280;6152;48.728;9.256;2023-06-19T08:13:08;96967.28;;;27.40;60.74
12178;BME280;6152;48.728;9.256;2023-06-19T08:15:37;96968.88;;;27.28;60.34
12178;BME280;6152;48.728;9.256;2023-06-19T08:18:03;96978.31;;;27.24;61.29
12178;BME280;6152;48.728;9.256;2023-06-19T08:20:29;96969.31;;;27.38;61.06
12178;BME280;6152;48.728;9.256;2023-06-19T08:22:55;96970.13;;;27.32;59.36
12178;BME280;6152;48.728;9.256;2023-06-19T08:25:22;96970.09;;;27.19;60.55
12178;BME280;6152;48.728;9.256;2023-06-19T08:27:48;96967.28;;;27.40;60.98
12178;BME280;6152;48.728;9.256;2023-06-19T08:30:14;96965.13;;;27.16;58.97
12178;BME280;6152;48.728;9.256;2023-06-19T08:32:40;96958.53;;;27.12;59.14
12178;BME280;6152;48.728;9.256;2023-06-19T08:35:07;96962.41;;;26.69;62.19
12178;BME280;6152;48.728;9.256;2023-06-19T08:37:33;96958.31;;;26.38;63.86
12178;BME280;6152;48.728;9.256;2023-06-19T08:40:00;96950.50;;;26.09;66.46
12178;BME280;6152;48.728;9.256;2023-06-19T08:42:26;96956.84;;;26.29;65.61
12178;BME280;6152;48.728;9.256;2023-06-19T08:44:53;96960.81;;;26.74;64.22
12178;BME280;6152;48.728;9.256;2023-06-19T08:47:19;96952.53;;;27.51;58.10
12178;BME280;6152;48.728;9.256;2023-06-19T08:49:45;96952.78;;;27.89;56.53
12178;BME280;6152;48.728;9.256;2023-06-19T08:52:12;96948.78;;;28.83;52.79
12178;BME280;6152;48.728;9.256;2023-06-19T08:54:38;96942.53;;;29.85;50.02
12178;BME280;6152;48.728;9.256;2023-06-19T08:57:10;96945.75;;;30.43;46.60
12178;BME280;6152;48.728;9.256;2023-06-19T08:59:37;96945.63;;;31.29;43.60
12178;BME280;6152;48.728;9.256;2023-06-19T09:02:03;96935.03;;;32.28;41.70
12178;BME280;6152;48.728;9.256;2023-06-19T09:04:29;96930.28;;;33.05;39.82
12178;BME280;6152;48.728;9.256;2023-06-19T09:06:59;96928.09;;;34.54;36.96
12178;BME280;6152;48.728;9.256;2023-06-19T09:09:26;96933.69;;;35.51;34.38
12178;BME280;6152;48.728;9.256;2023-06-19T09:12:08;96933.16;;;35.54;34.31
12178;BME280;6152;48.728;9.256;2023-06-19T09:14:41;96925.28;;;36.42;31.85
12178;BME280;6152;48.728;9.256;2023-06-19T09:17:11;96930.75;;;36.89;30.65
12178;BME280;6152;48.728;9.256;2023-06-19T09:19:46;96929.41;;;36.97;30.43
12178;BME280;6152;48.728;9.256;2023-06-19T09:22:13;96928.25;;;36.83;31.37
12178;BME280;6152;48.728;9.256;2023-06-19T09:24:40;96926.69;;;37.59;30.14
12178;BME280;6152;48.728;9.256;2023-06-19T09:27:17;96919.25;;;37.34;29.96
12178;BME280;6152;48.728;9.256;2023-06-19T09:29:49;96914.44;;;38.73;28.57
12178;BME280;6152;48.728;9.256;2023-06-19T09:32:18;96914.06;;;39.64;26.57
12178;BME280;6152;48.728;9.256;2023-06-19T09:34:45;96917.34;;;39.71;26.48
12178;BME280;6152;48.728;9.256;2023-06-19T09:37:11;96911.41;;;39.54;26.78
12178;BME280;6152;48.728;9.256;2023-06-19T09:39:38;96910.03;;;39.02;27.29
12178;BME280;6152;48.728;9.256;2023-06-19T09:42:07;96907.44;;;38.21;27.86
12178;BME280;6152;48.728;9.256;2023-06-19T09:44:40;96910.84;;;39.57;26.72
12178;BME280;6152;48.728;9.256;2023-06-19T09:47:31;96899.00;;;38.48;27.35
12178;BME280;6152;48.728;9.256;2023-06-19T09:49:58;96911.31;;;37.08;28.61
12178;BME280;6152;48.728;9.256;2023-06-19T09:52:25;96903.59;;;36.42;29.67
12178;BME280;6152;48.728;9.256;2023-06-19T09:54:52;96898.63;;;35.66;30.60
12178;BME280;6152;48.728;9.256;2023-06-19T09:57:19;96901.66;;;34.22;32.97
12178;BME280;6152;48.728;9.256;2023-06-19T09:59:51;96897.66;;;33.75;34.07
12178;BME280;6152;48.728;9.256;2023-06-19T10:02:20;96888.41;;;33.42;34.26
12178;BME280;6152;48.728;9.256;2023-06-19T10:04:51;96891.41;;;34.24;33.41
12178;BME280;6152;48.728;9.256;2023-06-19T10:07:21;96888.78;;;35.55;32.45
12178;BME280;6152;48.728;9.256;2023-06-19T10:15:20;96901.78;;;39.17;26.35
12178;BME280;6152;48.728;9.256;2023-06-19T10:18:02;96889.91;;;40.54;24.90
12178;BME280;6152;48.728;9.256;2023-06-19T10:25:29;96884.00;;;40.42;24.66
12178;BME280;6152;48.728;9.256;2023-06-19T10:27:57;96893.00;;;40.71;24.07
12178;BME280;6152;48.728;9.256;2023-06-19T10:30:24;96890.13;;;39.61;24.59
12178;BME280;6152;48.728;9.256;2023-06-19T10:32:50;96881.63;;;40.64;24.87
12178;BME280;6152;48.728;9.256;2023-06-19T10:35:17;96874.97;;;40.17;24.73
12178;BME280;6152;48.728;9.256;2023-06-19T10:37:44;96889.00;;;40.63;24.76
12178;BME280;6152;48.728;9.256;2023-06-19T10:40:11;96885.25;;;39.58;26.20
12178;BME280;6152;48.728;9.256;2023-06-19T10:42:47;96886.16;;;38.74;27.57
12178;BME280;6152;48.728;9.256;2023-06-19T10:45:14;96883.22;;;38.35;27.43
12178;BME280;6152;48.728;9.256;2023-06-19T10:47:44;96871.81;;;37.72;28.89
12178;BME280;6152;48.728;9.256;2023-06-19T10:50:14;96874.78;;;36.26;30.42
12178;BME280;6152;48.728;9.256;2023-06-19T10:52:44;96874.97;;;35.08;32.31
12178;BME280;6152;48.728;9.256;2023-06-19T10:55:14;96876.28;;;34.23;33.36
12178;BME280;6152;48.728;9.256;2023-06-19T10:57:47;96869.59;;;34.47;33.25
12178;BME280;6152;48.728;9.256;2023-06-19T11:00:24;96872.75;;;34.23;33.75
12178;BME280;6152;48.728;9.256;2023-06-19T11:02:50;96870.47;;;33.65;34.29
12178;BME280;6152;48.728;9.256;2023-06-19T11:05:19;96873.47;;;33.23;35.17
12178;BME280;6152;48.728;9.256;2023-06-19T11:07:54;96866.56;;;32.76;36.00
12178;BME280;6152;48.728;9.256;2023-06-19T11:10:22;96872.09;;;32.58;36.29
12178;BME280;6152;48.728;9.256;2023-06-19T11:12:50;96871.06;;;32.35;36.95
12178;BME280;6152;48.728;9.256;2023-06-19T11:15:18;96875.97;;;31.92;37.25
12178;BME280;6152;48.728;9.256;2023-06-19T11:17:45;96875.25;;;31.62;38.03
12178;BME280;6152;48.728;9.256;2023-06-19T11:20:14;96881.78;;;31.66;40.19
12178;BME280;6152;48.728;9.256;2023-06-19T11:22:41;96871.97;;;31.30;40.16
12178;BME280;6152;48.728;9.256;2023-06-19T11:25:09;96867.53;;;31.77;40.32
12178;BME280;6152;48.728;9.256;2023-06-19T11:27:38;96865.09;;;32.22;40.03
12178;BME280;6152;48.728;9.256;2023-06-19T11:30:05;96849.94;;;32.79;39.27
12178;BME280;6152;48.728;9.256;2023-06-19T11:32:39;96856.28;;;34.08;36.81
12178;BME280;6152;48.728;9.256;2023-06-19T11:35:12;96872.25;;;35.29;34.62
12178;BME280;6152;48.728;9.256;2023-06-19T11:37:42;96868.00;;;36.29;32.55
12178;BME280;6152;48.728;9.256;2023-06-19T11:40:10;96866.03;;;37.28;31.27
12178;BME280;6152;48.728;9.256;2023-06-19T11:42:52;96864.47;;;37.63;30.41
12178;BME280;6152;48.728;9.256;2023-06-19T11:45:18;96866.59;;;38.62;28.81
12178;BME280;6152;48.728;9.256;2023-06-19T11:47:45;96860.53;;;39.83;28.29
12178;BME280;6152;48.728;9.256;2023-06-19T11:50:13;96857.41;;;39.61;27.72
12178;BME280;6152;48.728;9.256;2023-06-19T11:52:39;96854.53;;;39.42;27.95
12178;BME280;6152;48.728;9.256;2023-06-19T11:55:06;96854.19;;;40.50;26.71
12178;BME280;6152;48.728;9.256;2023-06-19T11:57:32;96844.56;;;40.81;26.09
12178;BME280;6152;48.728;9.256;2023-06-19T12:00:02;96851.59;;;39.77;27.15
12178;BME280;6152;48.728;9.256;2023-06-19T12:02:32;96853.34;;;38.20;29.08
12178;BME280;6152;48.728;9.256;2023-06-19T12:04:59;96849.66;;;37.03;30.70
12178;BME280;6152;48.728;9.256;2023-06-19T12:07:25;96852.44;;;37.13;30.51
12178;BME280;6152;48.728;9.256;2023-06-19T12:09:51;96841.28;;;37.05;31.12
12178;BME280;6152;48.728;9.256;2023-06-19T12:12:17;96844.69;;;36.75;31.11
12178;BME280;6152;48.728;9.256;2023-06-19T12:14:44;96841.38;;;35.84;31.67
12178;BME280;6152;48.728;9.256;2023-06-19T12:17:11;96848.25;;;35.11;32.94
12178;BME280;6152;48.728;9.256;2023-06-19T12:19:37;96844.97;;;34.66;34.14
12178;BME280;6152;48.728;9.256;2023-06-19T12:22:04;96843.56;;;34.41;33.51
12178;BME280;6152;48.728;9.256;2023-06-19T12:24:30;96832.66;;;33.98;34.04
12178;BME280;6152;48.728;9.256;2023-06-19T12:26:56;96830.81;;;33.37;34.75
12178;BME280;6152;48.728;9.256;2023-06-19T12:29:22;96825.47;;;32.45;36.63
12178;BME280;6152;48.728;9.256;2023-06-19T12:31:49;96831.25;;;32.14;37.82
12178;BME280;6152;48.728;9.256;2023-06-19T12:34:15;96829.75;;;32.30;39.09
12178;BME280;6152;48.728;9.256;2023-06-19T12:36:43;96830.34;;;32.20;38.95
12178;BME280;6152;48.728;9.256;2023-06-19T12:39:09;96835.25;;;32.23;39.54
12178;BME280;6152;48.728;9.256;2023-06-19T12:41:42;96831.22;;;32.49;38.88
12178;BME280;6152;48.728;9.256;2023-06-19T12:44:08;96823.94;;;32.49;39.97
12178;BME280;6152;48.728;9.256;2023-06-19T12:46:34;96830.88;;;32.45;39.06
12178;BME280;6152;48.728;9.256;2023-06-19T12:49:00;96836.41;;;32.27;39.98
12178;BME280;6152;48.728;9.256;2023-06-19T12:51:26;96829.75;;;32.18;38.88
12178;BME280;6152;48.728;9.256;2023-06-19T12:53:52;96832.19;;;31.85;40.68
12178;BME280;6152;48.728;9.256;2023-06-19T12:56:30;96829.75;;;31.42;41.56
12178;BME280;6152;48.728;9.256;2023-06-19T12:58:57;96838.78;;;30.88;42.97
12178;BME280;6152;48.728;9.256;2023-06-19T13:01:23;96830.25;;;30.91;42.29
12178;BME280;6152;48.728;9.256;2023-06-19T13:03:49;96822.03;;;30.86;43.36
12178;BME280;6152;48.728;9.256;2023-06-19T13:06:15;96818.91;;;31.07;42.65
12178;BME280;6152;48.728;9.256;2023-06-19T13:08:41;96806.97;;;31.03;41.84
12178;BME280;6152;48.728;9.256;2023-06-19T13:11:08;96811.78;;;31.13;42.54
12178;BME280;6152;48.728;9.256;2023-06-19T13:13:34;96811.44;;;31.09;42.41
12178;BME280;6152;48.728;9.256;2023-06-19T13:16:00;96818.22;;;31.12;41.13
12178;BME280;6152;48.728;9.256;2023-06-19T13:18:26;96809.94;;;31.13;40.89